Time;durP1;ratioP1;P1;durP2;ratioP2;P2;SDS_P1;SDS_P2;PMS_P1;PMS_P2;Temp;Humidity;BMP_temperature;BMP_pressure;BME280_temperature;BME280_humidity;BME280_pressure;Samples;Min_cycle;Max_cycle;Signal;HPM_P1;HPM_P2
2022/12/25 14:45:23;;;;;;;3.42;1.50;;;12.70;99.90;;;;;;7580264;19;20379;-72
2022/12/25 14:48:01;;;;;;;4.43;1.25;;;12.20;99.90;;;;;;7607091;19;20067;-74
2022/12/25 14:50:38;;;;;;;1.40;1.30;;;12.10;99.90;;;;;;7593234;19;20018;-73
2022/12/25 14:53:20;;;;;;;3.25;1.50;;;12.00;99.90;;;;;;7587353;19;20630;-74
2022/12/25 14:55:53;;;;;;;2.58;1.75;;;11.90;99.90;;;;;;7594181;19;20467;-73
2022/12/25 14:58:29;;;;;;;3.40;3.10;;;11.90;99.90;;;;;;7599562;19;20014;-73
2022/12/25 15:01:03;;;;;;;2.20;1.67;;;11.80;99.90;;;;;;7595743;19;20018;-74
2022/12/25 15:03:36;;;;;;;;;;;11.70;99.90;;;;;;7611149;19;20025;-74
2022/12/25 15:06:18;;;;;;;1.98;1.42;;;11.70;99.90;;;;;;7612449;19;20262;-74
2022/12/25 15:08:56;;;;;;;1.88;1.60;;;11.50;99.90;;;;;;7610164;19;20037;-73
2022/12/25 15:11:29;;;;;;;1.85;1.70;;;11.40;99.90;;;;;;7601787;19;20015;-73
2022/12/25 15:14:01;;;;;;;2.95;2.65;;;11.30;99.90;;;;;;7597710;19;20022;-74
2022/12/25 15:16:40;;;;;;;2.60;1.30;;;11.30;99.90;;;;;;7606039;19;20025;-73
2022/12/25 15:19:19;;;;;;;3.25;1.33;;;11.20;99.90;;;;;;7619146;19;20014;-74
2022/12/25 15:21:58;;;;;;;3.08;2.63;;;11.10;99.90;;;;;;7606822;19;20007;-74
2022/12/25 15:24:30;;;;;;;;;;;11.00;99.90;;;;;;7605987;19;20094;-72
2022/12/25 15:27:04;;;;;;;1.80;1.63;;;11.00;99.90;;;;;;7609715;19;19922;-74
2022/12/25 15:29:37;;;;;;;3.35;2.78;;;10.90;99.90;;;;;;7616871;19;20562;-72
2022/12/25 15:32:29;;;;;;;4.97;4.50;;;10.90;99.90;;;;;;7616240;19;20022;-72
2022/12/25 15:35:01;;;;;;;4.18;3.30;;;10.70;99.90;;;;;;7619406;19;20028;-74
2022/12/25 15:37:33;;;;;;;3.22;2.13;;;10.80;99.90;;;;;;7610760;19;20014;-73
2022/12/25 15:40:06;;;;;;;4.05;2.10;;;10.60;99.90;;;;;;7611679;19;20006;-73
2022/12/25 15:42:39;;;;;;;2.35;1.73;;;10.50;99.90;;;;;;7598393;19;20018;-73
2022/12/25 15:45:26;;;;;;;4.43;2.75;;;10.40;99.90;;;;;;7606492;19;20014;-73
2022/12/25 15:47:58;;;;;;;4.30;3.58;;;10.30;99.90;;;;;;7612295;19;20010;-72
2022/12/25 15:50:31;;;;;;;3.53;2.60;;;10.10;99.90;;;;;;7589050;19;20014;-73
2022/12/25 15:53:03;;;;;;;;;;;10.10;99.90;;;;;;7598536;19;20006;-72
2022/12/25 15:55:36;;;;;;;6.15;3.25;;;10.10;99.90;;;;;;7572075;19;19942;-72
2022/12/25 15:58:11;;;;;;;3.92;2.65;;;10.10;99.90;;;;;;7551039;19;20014;-73
2022/12/25 16:00:44;;;;;;;8.95;3.80;;;10.00;99.90;;;;;;7549184;19;20017;-73
2022/12/25 16:03:16;;;;;;;5.28;2.60;;;9.80;99.90;;;;;;7548992;19;20029;-74
2022/12/25 16:05:49;;;;;;;4.88;2.80;;;9.80;99.90;;;;;;7537563;19;20077;-73
2022/12/25 16:08:22;;;;;;;3.53;2.65;;;9.70;99.90;;;;;;7552804;19;20044;-73
2022/12/25 16:10:54;;;;;;;3.85;2.58;;;9.70;99.90;;;;;;7568352;19;20034;-73
2022/12/25 16:13:26;;;;;;;4.00;2.90;;;9.70;99.90;;;;;;7556349;19;20010;-72
2022/12/25 16:15:58;;;;;;;4.97;2.88;;;9.70;99.90;;;;;;7542782;19;20121;-74
2022/12/25 16:18:30;;;;;;;6.22;3.50;;;9.60;99.90;;;;;;7551852;19;20022;-71
2022/12/25 16:21:02;;;;;;;4.50;2.70;;;9.50;99.90;;;;;;7562726;19;25784;-74
2022/12/25 16:23:35;;;;;;;6.53;2.53;;;9.40;99.90;;;;;;7562972;19;20367;-73
2022/12/25 16:26:08;;;;;;;3.75;2.30;;;9.30;99.90;;;;;;7547827;19;20022;-77
2022/12/25 16:28:40;;;;;;;3.88;2.60;;;9.20;99.90;;;;;;7545774;19;20063;-74
2022/12/25 16:31:13;;;;;;;5.10;2.88;;;9.10;99.90;;;;;;7562213;19;20017;-74
2022/12/25 16:33:45;;;;;;;3.10;2.50;;;9.00;99.90;;;;;;7558342;19;20021;-73
2022/12/25 16:36:18;;;;;;;5.30;2.72;;;9.10;99.90;;;;;;7564572;19;20029;-74
2022/12/25 16:38:57;;;;;;;3.95;3.03;;;9.00;99.90;;;;;;7578000;19;20021;-76
2022/12/25 16:41:30;;;;;;;5.95;3.85;;;9.00;99.90;;;;;;7556434;19;20017;-77
2022/12/25 16:44:10;;;;;;;4.50;3.30;;;8.90;99.90;;;;;;7577444;19;20010;-77
2022/12/25 16:46:43;;;;;;;5.70;3.40;;;8.80;99.90;;;;;;7560039;19;20785;-78
2022/12/25 16:49:15;;;;;;;7.15;3.78;;;8.90;99.90;;;;;;7569529;19;20011;-77
2022/12/25 16:51:47;;;;;;;9.10;4.10;;;8.90;99.90;;;;;;7580543;19;20479;-76
2022/12/25 16:54:19;;;;;;;5.50;3.88;;;8.90;99.90;;;;;;7574557;19;20951;-77
2022/12/25 16:56:51;;;;;;;3.65;2.90;;;8.80;99.90;;;;;;7559360;19;20061;-77
2022/12/25 16:59:23;;;;;;;5.07;3.63;;;8.60;99.90;;;;;;7563497;19;20022;-79
2022/12/25 17:01:56;;;;;;;5.50;3.80;;;8.60;99.90;;;;;;7566251;19;20017;-76
2022/12/25 17:04:28;;;;;;;6.05;3.65;;;8.50;99.90;;;;;;7544852;19;20500;-78
2022/12/25 17:07:00;;;;;;;9.43;4.88;;;8.50;99.90;;;;;;7530644;19;20033;-75
2022/12/25 17:09:32;;;;;;;9.05;4.85;;;8.30;99.90;;;;;;7583378;19;20014;-76
2022/12/25 17:12:11;;;;;;;8.68;5.35;;;8.30;99.90;;;;;;7557034;19;20472;-76
2022/12/25 17:14:44;;;;;;;7.53;5.70;;;8.40;99.90;;;;;;7561147;19;20006;-75
2022/12/25 17:17:16;;;;;;;9.77;5.05;;;8.40;99.90;;;;;;7574606;19;20044;-76
2022/12/25 17:19:48;;;;;;;7.85;4.80;;;8.30;99.90;;;;;;7571549;19;20048;-76
2022/12/25 17:22:20;;;;;;;6.53;4.30;;;8.20;99.90;;;;;;7582169;19;20022;-75
2022/12/25 17:24:53;;;;;;;8.05;5.32;;;8.20;99.90;;;;;;7576734;19;20022;-76
2022/12/25 17:27:25;;;;;;;8.50;4.57;;;8.10;99.90;;;;;;7562765;19;21706;-78
2022/12/25 17:29:57;;;;;;;6.75;4.45;;;8.00;99.90;;;;;;7565622;19;20010;-76
2022/12/25 17:32:29;;;;;;;6.63;4.45;;;8.00;99.90;;;;;;7574345;19;20006;-77
2022/12/25 17:35:02;;;;;;;12.23;5.25;;;7.90;99.90;;;;;;7557564;19;20016;-75
2022/12/25 17:37:34;;;;;;;10.10;6.05;;;7.80;99.90;;;;;;7562221;19;20014;-76
2022/12/25 17:40:07;;;;;;;8.32;5.80;;;7.70;99.90;;;;;;7558980;19;20010;-76
2022/12/25 17:42:39;;;;;;;10.38;6.47;;;7.80;99.90;;;;;;7582628;19;20126;-77
2022/12/25 17:45:11;;;;;;;15.60;9.48;;;7.80;99.90;;;;;;7579877;19;20017;-77
2022/12/25 17:47:43;;;;;;;18.17;12.40;;;7.90;99.90;;;;;;7594412;19;20014;-78
2022/12/25 17:50:15;;;;;;;18.48;11.50;;;7.90;99.90;;;;;;7589008;19;20018;-77
2022/12/25 17:52:47;;;;;;;18.70;10.98;;;7.80;99.90;;;;;;7588776;19;20102;-77
2022/12/25 17:55:33;;;;;;;13.38;9.35;;;7.70;99.90;;;;;;7578558;19;20014;-77
2022/12/25 17:58:06;;;;;;;16.55;9.93;;;7.70;99.90;;;;;;7564060;19;20750;-76
2022/12/25 18:00:38;;;;;;;13.20;10.45;;;7.60;99.90;;;;;;7555440;19;20029;-77
2022/12/25 18:03:10;;;;;;;14.15;9.18;;;7.70;99.90;;;;;;7580564;19;20015;-77
2022/12/25 18:05:43;;;;;;;13.77;9.50;;;7.70;99.90;;;;;;7574605;19;20018;-77
2022/12/25 18:08:15;;;;;;;13.00;9.30;;;7.60;99.90;;;;;;7597245;19;20105;-77
2022/12/25 18:10:48;;;;;;;15.55;9.48;;;7.60;99.90;;;;;;7580464;19;20868;-77
2022/12/25 18:13:20;;;;;;;18.25;11.13;;;7.60;99.90;;;;;;7579858;19;20018;-76
2022/12/25 18:15:52;;;;;;;17.67;10.50;;;7.60;99.90;;;;;;7574507;19;20037;-77
2022/12/25 18:18:24;;;;;;;18.08;11.27;;;7.50;99.90;;;;;;7588856;19;20015;-77
2022/12/25 18:20:56;;;;;;;18.40;11.02;;;7.40;99.90;;;;;;7572742;19;21007;-77
2022/12/25 18:23:28;;;;;;;21.52;11.80;;;7.50;99.90;;;;;;7600806;19;20010;-77
2022/12/25 18:26:03;;;;;;;21.00;12.70;;;7.50;99.90;;;;;;7596099;19;20015;-77
2022/12/25 18:28:35;;;;;;;18.92;11.55;;;7.50;99.90;;;;;;7565092;19;20739;-76
2022/12/25 18:31:10;;;;;;;18.50;11.02;;;7.50;99.90;;;;;;7565890;19;20019;-76
2022/12/25 18:33:50;;;;;;;18.63;12.30;;;7.40;99.90;;;;;;7580300;19;21263;-75
2022/12/25 18:36:25;;;;;;;16.80;11.25;;;7.30;99.90;;;;;;7544059;19;20047;-76
2022/12/25 18:38:57;;;;;;;20.45;10.68;;;7.40;99.90;;;;;;7561571;19;20029;-76
2022/12/25 18:41:29;;;;;;;18.17;11.10;;;7.30;99.90;;;;;;7540025;19;20021;-78
2022/12/25 18:44:29;;;;;;;17.52;11.05;;;7.30;99.90;;;;;;7571012;19;20742;-76
2022/12/25 18:47:34;;;;;;;18.95;12.88;;;7.30;99.90;;;;;;7554098;19;20603;-76
2022/12/25 18:51:03;;;;;;;20.08;12.13;;;7.20;99.90;;;;;;7582098;19;20050;-77
2022/12/25 18:53:46;;;;;;;18.33;11.48;;;7.10;99.90;;;;;;7599649;19;20025;-76
2022/12/25 18:56:18;;;;;;;127.88;46.05;;;7.00;99.90;;;;;;7561129;19;20550;-77
2022/12/25 18:58:50;;;;;;;31.63;15.73;;;7.20;99.90;;;;;;7582589;19;20569;-77
2022/12/25 19:01:25;;;;;;;19.50;11.75;;;7.20;99.90;;;;;;7577931;19;20023;-77
2022/12/25 19:03:59;;;;;;;20.02;11.70;;;7.20;99.90;;;;;;7578460;19;20011;-77
2022/12/25 19:06:36;;;;;;;18.52;11.75;;;7.20;99.90;;;;;;7579228;19;20511;-76
2022/12/25 19:09:09;;;;;;;18.92;11.45;;;7.20;99.90;;;;;;7590215;19;20943;-75
2022/12/25 19:11:42;;;;;;;24.13;15.05;;;7.20;99.90;;;;;;7601787;19;20630;-76
2022/12/25 19:14:17;;;;;;;19.00;11.93;;;7.20;99.90;;;;;;7591093;19;20156;-75
2022/12/25 19:16:50;;;;;;;20.67;11.90;;;7.30;99.90;;;;;;7578252;19;20930;-77
2022/12/25 19:19:23;;;;;;;;;;;7.30;99.90;;;;;;7589397;19;20562;-76
2022/12/25 19:21:56;;;;;;;23.98;11.68;;;7.40;99.90;;;;;;7600610;19;20502;-76
2022/12/25 19:24:31;;;;;;;16.15;9.68;;;7.40;99.90;;;;;;7590048;19;20033;-77
2022/12/25 19:27:03;;;;;;;14.52;8.77;;;7.50;99.90;;;;;;7583942;19;21073;-77
2022/12/25 19:29:35;;;;;;;25.40;11.43;;;7.50;99.90;;;;;;7576657;19;20504;-77
2022/12/25 19:32:08;;;;;;;25.80;10.40;;;7.60;99.90;;;;;;7592904;19;20014;-77
2022/12/25 19:34:40;;;;;;;20.67;10.57;;;7.70;99.90;;;;;;7587282;19;20061;-77
2022/12/25 19:37:13;;;;;;;12.80;7.10;;;7.70;99.90;;;;;;7583909;19;20531;-77
2022/12/25 19:39:47;;;;;;;13.57;7.63;;;7.90;99.90;;;;;;7565643;19;20654;-77
2022/12/25 19:42:20;;;;;;;11.18;6.88;;;7.90;99.90;;;;;;7601216;19;20022;-76
2022/12/25 19:44:54;;;;;;;10.35;6.30;;;7.70;99.90;;;;;;7595988;19;20037;-77
2022/12/25 19:47:40;;;;;;;11.65;6.82;;;7.80;99.90;;;;;;7598848;19;20023;-78
2022/12/25 19:50:16;;;;;;;12.75;6.78;;;7.80;99.90;;;;;;7074563;19;10000362;-75
2022/12/25 19:52:48;;;;;;;12.40;7.90;;;7.90;99.90;;;;;;7537831;19;20029;-78
2022/12/25 19:55:23;;;;;;;13.82;8.95;;;7.90;99.90;;;;;;7516875;19;20006;-75
2022/12/25 19:57:57;;;;;;;19.70;11.52;;;7.90;99.90;;;;;;7536908;19;20011;-75
2022/12/25 20:00:30;;;;;;;18.00;10.80;;;7.90;99.90;;;;;;7508437;19;20019;-75
2022/12/25 20:03:02;;;;;;;17.67;10.50;;;8.00;99.90;;;;;;7546914;19;20021;-76
2022/12/25 20:05:35;;;;;;;20.67;11.03;;;8.00;99.90;;;;;;7546237;19;20049;-76
2022/12/25 20:08:08;;;;;;;17.00;8.32;;;8.00;99.90;;;;;;7517607;19;20271;-76
2022/12/25 20:10:44;;;;;;;20.60;9.80;;;8.00;99.90;;;;;;7564277;19;20474;-75
2022/12/25 20:13:16;;;;;;;8.05;4.25;;;8.00;99.90;;;;;;7556184;19;20028;-76
2022/12/25 20:15:49;;;;;;;9.25;5.45;;;8.00;99.90;;;;;;7575159;19;20013;-77
2022/12/25 20:18:21;;;;;;;11.93;6.07;;;8.00;99.90;;;;;;7575734;19;21806;-76
2022/12/25 20:21:01;;;;;;;7.38;4.63;;;7.90;99.90;;;;;;7576880;19;20471;-77
2022/12/25 20:23:34;;;;;;;7.03;4.90;;;8.00;99.90;;;;;;7573847;19;20011;-77
2022/12/25 20:26:07;;;;;;;7.75;4.68;;;8.10;99.90;;;;;;7566907;19;20623;-76
2022/12/25 20:28:40;;;;;;;6.68;4.95;;;8.10;99.90;;;;;;7570975;19;20033;-76
2022/12/25 20:31:18;;;;;;;8.55;5.82;;;8.20;99.90;;;;;;7583574;19;20017;-76
2022/12/25 20:33:50;;;;;;;8.90;5.32;;;8.30;99.90;;;;;;7583071;19;21574;-75
2022/12/25 20:36:22;;;;;;;9.20;5.35;;;8.30;99.90;;;;;;7582675;19;20415;-77
2022/12/25 20:38:54;;;;;;;8.35;5.50;;;8.40;99.90;;;;;;7579602;19;21061;-77
2022/12/25 20:41:26;;;;;;;7.13;4.85;;;8.40;99.90;;;;;;7577697;19;20565;-76
2022/12/25 20:44:02;;;;;;;8.73;4.50;;;8.50;99.90;;;;;;7567607;19;20524;-77
2022/12/25 20:46:35;;;;;;;7.28;4.15;;;8.50;99.90;;;;;;7572634;19;20035;-77
2022/12/25 20:49:07;;;;;;;9.50;4.87;;;8.50;99.90;;;;;;7572580;19;20015;-76
2022/12/25 20:51:40;;;;;;;6.60;3.67;;;8.60;99.90;;;;;;7574911;19;20281;-76
2022/12/25 20:54:13;;;;;;;6.53;3.83;;;8.60;99.90;;;;;;7572599;19;20018;-77
2022/12/25 20:56:47;;;;;;;6.25;3.67;;;8.70;99.90;;;;;;7569075;19;20867;-77
2022/12/25 20:59:19;;;;;;;;;;;8.80;99.90;;;;;;7578060;19;20014;-77
2022/12/25 21:01:53;;;;;;;5.18;3.20;;;8.90;99.90;;;;;;7564669;19;21046;-76
2022/12/25 21:04:25;;;;;;;6.80;4.00;;;9.00;99.90;;;;;;7575697;19;20019;-77
2022/12/25 21:06:57;;;;;;;9.93;4.05;;;9.10;99.90;;;;;;7564995;19;20018;-76
2022/12/25 21:09:29;;;;;;;9.77;4.50;;;9.10;99.90;;;;;;7584850;19;20017;-78
2022/12/25 21:12:02;;;;;;;10.02;5.00;;;9.10;99.90;;;;;;7558838;19;20026;-78
2022/12/25 21:14:35;;;;;;;6.00;3.70;;;9.20;99.90;;;;;;7575945;19;20018;-78
2022/12/25 21:17:07;;;;;;;;;;;9.20;99.90;;;;;;7580104;19;20039;-77
2022/12/25 21:19:39;;;;;;;4.82;3.05;;;9.20;99.90;;;;;;7586216;19;19938;-77
2022/12/25 21:22:11;;;;;;;4.55;3.08;;;9.10;99.90;;;;;;7573868;19;20017;-77
2022/12/25 21:24:43;;;;;;;6.22;3.47;;;9.10;99.90;;;;;;7582580;19;20015;-77
2022/12/25 21:27:15;;;;;;;7.30;3.45;;;9.10;99.90;;;;;;7563690;19;20031;-76
2022/12/25 21:29:47;;;;;;;8.93;4.15;;;9.10;99.90;;;;;;7572946;19;20022;-76
2022/12/25 21:35:13;;;;;;;6.78;3.80;;;9.00;99.90;;;;;;7558746;19;20937;-76
2022/12/25 21:37:45;;;;;;;6.68;3.50;;;8.90;99.90;;;;;;7554048;19;20563;-77
2022/12/25 21:40:18;;;;;;;5.70;3.50;;;8.90;99.90;;;;;;7537433;19;20014;-75
2022/12/25 21:42:51;;;;;;;6.95;4.30;;;8.80;99.90;;;;;;7571875;19;20015;-75
2022/12/25 21:45:23;;;;;;;6.47;4.13;;;8.60;99.90;;;;;;7570677;19;20015;-74
2022/12/25 21:47:55;;;;;;;5.85;3.70;;;8.50;99.90;;;;;;7572493;19;20456;-77
2022/12/25 21:53:24;;;;;;;8.32;4.57;;;8.30;99.90;;;;;;7551114;19;20010;-78
2022/12/25 21:55:59;;;;;;;7.55;4.47;;;8.00;99.90;;;;;;7573168;19;20011;-75
2022/12/25 21:58:31;;;;;;;8.15;4.70;;;7.90;99.90;;;;;;7556397;19;20014;-78
2022/12/25 22:01:04;;;;;;;9.48;6.25;;;7.80;99.90;;;;;;7533042;19;20015;-77
2022/12/25 22:03:36;;;;;;;21.38;11.10;;;7.70;99.90;;;;;;7580514;19;20018;-78
2022/12/25 22:09:03;;;;;;;42.00;19.33;;;7.60;99.90;;;;;;7577560;19;20018;-77
2022/12/25 22:20:33;;;;;;;35.75;18.30;;;7.40;99.90;;;;;;7590443;19;20018;-75
2022/12/25 22:23:05;;;;;;;37.35;17.90;;;7.30;99.90;;;;;;7566383;19;20014;-76
2022/12/25 22:25:37;;;;;;;35.58;19.25;;;7.20;99.90;;;;;;7574554;19;20010;-78
2022/12/25 22:28:09;;;;;;;34.90;18.35;;;7.10;99.90;;;;;;7583351;19;22670;-77
